sensor_id;sensor_type;location;lat;lon;timestamp;temperature;humidity
60353;DHT22;46196;52.970;6.954;2023-01-28T00:01:11;2.50;99.90
60353;DHT22;46196;52.970;6.954;2023-01-28T00:03:37;1.10;99.90
60353;DHT22;46196;52.970;6.954;2023-01-28T00:06:10;2.50;99.90
60353;DHT22;46196;52.970;6.954;2023-01-28T00:11:04;2.50;99.90
60353;DHT22;46196;52.970;6.954;2023-01-28T00:15:58;2.40;99.90
60353;DHT22;46196;52.970;6.954;2023-01-28T00:18:25;2.40;99.90
60353;DHT22;46196;52.970;6.954;2023-01-28T00:21:12;3.30;99.90
60353;DHT22;46196;52.970;6.954;2023-01-28T00:23:39;2.40;99.90
60353;DHT22;46196;52.970;6.954;2023-01-28T00:26:08;1.70;99.90
60353;DHT22;46196;52.970;6.954;2023-01-28T00:31:24;4.50;99.90
60353;DHT22;46196;52.970;6.954;2023-01-28T00:33:53;2.40;99.90
60353;DHT22;46196;52.970;6.954;2023-01-28T00:36:21;3.90;99.90
60353;DHT22;46196;52.970;6.954;2023-01-28T00:38:52;2.20;99.90
60353;DHT22;46196;52.970;6.954;2023-01-28T00:41:20;1.70;99.90
60353;DHT22;46196;52.970;6.954;2023-01-28T00:46:12;2.50;99.90
60353;DHT22;46196;52.970;6.954;2023-01-28T00:48:39;1.70;99.90
60353;DHT22;46196;52.970;6.954;2023-01-28T00:51:07;2.50;99.90
60353;DHT22;46196;52.970;6.954;2023-01-28T00:58:27;1.40;99.90
60353;DHT22;46196;52.970;6.954;2023-01-28T01:00:52;1.30;99.90
60353;DHT22;46196;52.970;6.954;2023-01-28T01:03:19;2.30;99.90
60353;DHT22;46196;52.970;6.954;2023-01-28T01:05:45;1.70;99.90
60353;DHT22;46196;52.970;6.954;2023-01-28T01:08:11;2.40;99.90
60353;DHT22;46196;52.970;6.954;2023-01-28T01:10:37;2.30;99.90
60353;DHT22;46196;52.970;6.954;2023-01-28T01:13:04;2.30;99.90
60353;DHT22;46196;52.970;6.954;2023-01-28T01:15:30;2.00;99.90
60353;DHT22;46196;52.970;6.954;2023-01-28T01:17:57;2.30;99.90
60353;DHT22;46196;52.970;6.954;2023-01-28T01:20:26;2.40;99.90
60353;DHT22;46196;52.970;6.954;2023-01-28T01:25:19;3.60;99.90
60353;DHT22;46196;52.970;6.954;2023-01-28T01:27:47;2.20;99.90
60353;DHT22;46196;52.970;6.954;2023-01-28T01:30:14;1.60;99.90
60353;DHT22;46196;52.970;6.954;2023-01-28T01:32:41;1.70;99.90
60353;DHT22;46196;52.970;6.954;2023-01-28T01:35:08;2.30;99.90
60353;DHT22;46196;52.970;6.954;2023-01-28T01:37:35;2.30;99.90
60353;DHT22;46196;52.970;6.954;2023-01-28T01:40:02;4.80;99.90
60353;DHT22;46196;52.970;6.954;2023-01-28T01:42:30;5.10;99.90
60353;DHT22;46196;52.970;6.954;2023-01-28T01:45:03;5.00;99.90
60353;DHT22;46196;52.970;6.954;2023-01-28T01:52:56;2.30;99.90
60353;DHT22;46196;52.970;6.954;2023-01-28T01:55:25;1.80;99.90
60353;DHT22;46196;52.970;6.954;2023-01-28T01:57:54;1.60;99.90
60353;DHT22;46196;52.970;6.954;2023-01-28T02:02:48;2.10;99.90
60353;DHT22;46196;52.970;6.954;2023-01-28T02:05:17;2.30;99.90
60353;DHT22;46196;52.970;6.954;2023-01-28T02:07:45;2.90;99.90
60353;DHT22;46196;52.970;6.954;2023-01-28T02:10:12;2.30;99.90
60353;DHT22;46196;52.970;6.954;2023-01-28T02:12:51;1.80;99.90
60353;DHT22;46196;52.970;6.954;2023-01-28T02:15:21;4.00;99.90
60353;DHT22;46196;52.970;6.954;2023-01-28T02:17:49;4.60;99.90
60353;DHT22;46196;52.970;6.954;2023-01-28T02:20:21;2.40;99.90
60353;DHT22;46196;52.970;6.954;2023-01-28T02:26:09;2.30;99.90
60353;DHT22;46196;52.970;6.954;2023-01-28T02:34:23;2.20;99.90
60353;DHT22;46196;52.970;6.954;2023-01-28T02:37:23;1.10;99.90
60353;DHT22;46196;52.970;6.954;2023-01-28T02:40:04;2.20;99.90
60353;DHT22;46196;52.970;6.954;2023-01-28T02:42:35;1.00;99.90
60353;DHT22;46196;52.970;6.954;2023-01-28T02:45:02;2.30;99.90
60353;DHT22;46196;52.970;6.954;2023-01-28T02:50:18;0.60;99.90
60353;DHT22;46196;52.970;6.954;2023-01-28T02:58:51;2.20;99.90
60353;DHT22;46196;52.970;6.954;2023-01-28T03:01:38;1.00;99.90
60353;DHT22;46196;52.970;6.954;2023-01-28T03:04:27;3.50;99.90
60353;DHT22;46196;52.970;6.954;2023-01-28T03:06:58;1.60;99.90
60353;DHT22;46196;52.970;6.954;2023-01-28T03:09:25;1.30;99.90
60353;DHT22;46196;52.970;6.954;2023-01-28T03:12:00;0.50;99.90
60353;DHT22;46196;52.970;6.954;2023-01-28T03:14:54;0.90;99.90
60353;DHT22;46196;52.970;6.954;2023-01-28T03:20:32;2.20;99.90
60353;DHT22;46196;52.970;6.954;2023-01-28T03:23:23;1.70;99.90
60353;DHT22;46196;52.970;6.954;2023-01-28T03:26:11;2.30;99.90
60353;DHT22;46196;52.970;6.954;2023-01-28T03:29:05;1.70;99.90
60353;DHT22;46196;52.970;6.954;2023-01-28T03:31:51;3.90;99.90
60353;DHT22;46196;52.970;6.954;2023-01-28T03:37:22;1.00;99.90
60353;DHT22;46196;52.970;6.954;2023-01-28T03:39:48;5.20;99.90
60353;DHT22;46196;52.970;6.954;2023-01-28T03:42:14;1.30;99.90
60353;DHT22;46196;52.970;6.954;2023-01-28T03:44:40;2.70;99.90
60353;DHT22;46196;52.970;6.954;2023-01-28T03:47:24;2.30;99.90
60353;DHT22;46196;52.970;6.954;2023-01-28T03:49:52;1.90;99.90
60353;DHT22;46196;52.970;6.954;2023-01-28T03:52:20;2.30;99.90
60353;DHT22;46196;52.970;6.954;2023-01-28T03:54:47;1.50;99.90
60353;DHT22;46196;52.970;6.954;2023-01-28T03:57:14;4.00;99.90
60353;DHT22;46196;52.970;6.954;2023-01-28T03:59:40;2.80;99.90
60353;DHT22;46196;52.970;6.954;2023-01-28T04:04:32;1.60;99.90
60353;DHT22;46196;52.970;6.954;2023-01-28T04:06:59;1.10;99.90
60353;DHT22;46196;52.970;6.954;2023-01-28T04:09:25;2.00;99.90
60353;DHT22;46196;52.970;6.954;2023-01-28T04:11:51;2.20;99.90
60353;DHT22;46196;52.970;6.954;2023-01-28T04:14:17;3.70;99.90
60353;DHT22;46196;52.970;6.954;2023-01-28T04:16:44;3.30;99.90
60353;DHT22;46196;52.970;6.954;2023-01-28T04:19:10;0.60;99.90
60353;DHT22;46196;52.970;6.954;2023-01-28T04:21:40;1.80;99.90
60353;DHT22;46196;52.970;6.954;2023-01-28T04:28:58;1.20;99.90
60353;DHT22;46196;52.970;6.954;2023-01-28T04:31:24;2.20;99.90
60353;DHT22;46196;52.970;6.954;2023-01-28T04:36:16;1.80;99.90
60353;DHT22;46196;52.970;6.954;2023-01-28T04:38:42;2.10;99.90
60353;DHT22;46196;52.970;6.954;2023-01-28T04:43:33;4.70;99.90
60353;DHT22;46196;52.970;6.954;2023-01-28T04:45:59;3.40;99.90
60353;DHT22;46196;52.970;6.954;2023-01-28T04:55:44;2.30;99.90
60353;DHT22;46196;52.970;6.954;2023-01-28T04:58:09;2.40;99.90
60353;DHT22;46196;52.970;6.954;2023-01-28T05:03:01;4.20;99.90
60353;DHT22;46196;52.970;6.954;2023-01-28T05:05:27;1.30;99.90
60353;DHT22;46196;52.970;6.954;2023-01-28T05:07:54;3.20;99.90
60353;DHT22;46196;52.970;6.954;2023-01-28T05:10:20;3.90;99.90
60353;DHT22;46196;52.970;6.954;2023-01-28T05:12:47;2.20;99.90
60353;DHT22;46196;52.970;6.954;2023-01-28T05:15:14;1.50;99.90
60353;DHT22;46196;52.970;6.954;2023-01-28T05:20:08;3.80;99.90
60353;DHT22;46196;52.970;6.954;2023-01-28T05:22:34;1.60;99.90
60353;DHT22;46196;52.970;6.954;2023-01-28T05:25:00;3.90;99.90
60353;DHT22;46196;52.970;6.954;2023-01-28T05:27:29;1.20;99.90
60353;DHT22;46196;52.970;6.954;2023-01-28T05:29:55;1.50;99.90
60353;DHT22;46196;52.970;6.954;2023-01-28T05:32:20;1.10;99.90
60353;DHT22;46196;52.970;6.954;2023-01-28T05:34:46;4.30;99.90
60353;DHT22;46196;52.970;6.954;2023-01-28T05:37:12;2.00;99.90
60353;DHT22;46196;52.970;6.954;2023-01-28T05:39:37;2.30;99.90
60353;DHT22;46196;52.970;6.954;2023-01-28T05:42:03;0.50;99.90
60353;DHT22;46196;52.970;6.954;2023-01-28T05:44:29;1.30;99.90
60353;DHT22;46196;52.970;6.954;2023-01-28T05:54:14;5.00;99.90
60353;DHT22;46196;52.970;6.954;2023-01-28T05:59:06;2.00;99.90
60353;DHT22;46196;52.970;6.954;2023-01-28T06:01:32;0.30;99.90
60353;DHT22;46196;52.970;6.954;2023-01-28T06:06:24;3.70;99.90
60353;DHT22;46196;52.970;6.954;2023-01-28T06:13:42;1.10;99.90
60353;DHT22;46196;52.970;6.954;2023-01-28T06:18:34;0.80;99.90
60353;DHT22;46196;52.970;6.954;2023-01-28T06:21:00;1.30;99.90
60353;DHT22;46196;52.970;6.954;2023-01-28T06:23:26;3.90;99.90
60353;DHT22;46196;52.970;6.954;2023-01-28T06:25:55;1.90;99.90
60353;DHT22;46196;52.970;6.954;2023-01-28T06:28:22;1.90;99.90
60353;DHT22;46196;52.970;6.954;2023-01-28T06:38:08;2.10;99.90
60353;DHT22;46196;52.970;6.954;2023-01-28T06:40:33;1.20;99.90
60353;DHT22;46196;52.970;6.954;2023-01-28T06:42:59;1.60;99.90
60353;DHT22;46196;52.970;6.954;2023-01-28T06:55:10;1.00;99.90
60353;DHT22;46196;52.970;6.954;2023-01-28T06:57:39;3.20;99.90
60353;DHT22;46196;52.970;6.954;2023-01-28T07:00:08;2.40;99.90
60353;DHT22;46196;52.970;6.954;2023-01-28T07:02:36;1.80;99.90
60353;DHT22;46196;52.970;6.954;2023-01-28T07:05:02;1.80;99.90
60353;DHT22;46196;52.970;6.954;2023-01-28T07:22:05;1.30;99.90
60353;DHT22;46196;52.970;6.954;2023-01-28T07:26:58;1.00;99.90
60353;DHT22;46196;52.970;6.954;2023-01-28T07:34:16;1.90;99.90
60353;DHT22;46196;52.970;6.954;2023-01-28T07:36:42;3.70;99.90
60353;DHT22;46196;52.970;6.954;2023-01-28T07:41:34;1.20;99.90
60353;DHT22;46196;52.970;6.954;2023-01-28T07:44:00;1.30;99.90
60353;DHT22;46196;52.970;6.954;2023-01-28T07:46:27;2.30;99.90
60353;DHT22;46196;52.970;6.954;2023-01-28T07:48:53;1.30;99.90
60353;DHT22;46196;52.970;6.954;2023-01-28T07:53:45;1.60;99.90
60353;DHT22;46196;52.970;6.954;2023-01-28T08:03:29;0.00;99.90
60353;DHT22;46196;52.970;6.954;2023-01-28T08:05:55;-0.20;99.90
60353;DHT22;46196;52.970;6.954;2023-01-28T08:08:22;2.40;99.90
60353;DHT22;46196;52.970;6.954;2023-01-28T08:13:16;1.50;99.90
60353;DHT22;46196;52.970;6.954;2023-01-28T08:15:42;3.60;99.90
60353;DHT22;46196;52.970;6.954;2023-01-28T08:18:10;-0.50;99.90
60353;DHT22;46196;52.970;6.954;2023-01-28T08:20:38;-0.60;99.90
60353;DHT22;46196;52.970;6.954;2023-01-28T08:23:15;0.30;99.90
60353;DHT22;46196;52.970;6.954;2023-01-28T08:25:41;1.40;99.90
60353;DHT22;46196;52.970;6.954;2023-01-28T08:28:08;-0.20;99.90
60353;DHT22;46196;52.970;6.954;2023-01-28T08:30:34;3.50;99.90
60353;DHT22;46196;52.970;6.954;2023-01-28T08:33:03;3.50;99.90
60353;DHT22;46196;52.970;6.954;2023-01-28T08:35:29;4.20;99.90
60353;DHT22;46196;52.970;6.954;2023-01-28T08:37:58;2.30;99.90
60353;DHT22;46196;52.970;6.954;2023-01-28T08:42:51;1.60;99.90
60353;DHT22;46196;52.970;6.954;2023-01-28T08:45:18;3.60;99.90
60353;DHT22;46196;52.970;6.954;2023-01-28T08:47:58;1.60;99.90
60353;DHT22;46196;52.970;6.954;2023-01-28T08:50:26;1.70;99.90
60353;DHT22;46196;52.970;6.954;2023-01-28T08:53:00;0.30;99.90
60353;DHT22;46196;52.970;6.954;2023-01-28T08:55:27;2.30;99.90
60353;DHT22;46196;52.970;6.954;2023-01-28T08:57:53;1.70;99.90
60353;DHT22;46196;52.970;6.954;2023-01-28T09:00:20;2.80;99.90
60353;DHT22;46196;52.970;6.954;2023-01-28T09:05:12;1.70;99.90
60353;DHT22;46196;52.970;6.954;2023-01-28T09:10:05;3.90;99.90
60353;DHT22;46196;52.970;6.954;2023-01-28T09:12:31;3.50;99.90
60353;DHT22;46196;52.970;6.954;2023-01-28T09:14:57;3.50;99.90
60353;DHT22;46196;52.970;6.954;2023-01-28T09:19:49;3.10;99.90
60353;DHT22;46196;52.970;6.954;2023-01-28T09:22:16;2.40;99.90
60353;DHT22;46196;52.970;6.954;2023-01-28T09:27:08;5.60;99.90
60353;DHT22;46196;52.970;6.954;2023-01-28T09:29:34;2.60;99.90
60353;DHT22;46196;52.970;6.954;2023-01-28T09:32:00;3.60;99.90
60353;DHT22;46196;52.970;6.954;2023-01-28T09:34:26;3.20;99.90
60353;DHT22;46196;52.970;6.954;2023-01-28T09:42:46;3.40;99.90
60353;DHT22;46196;52.970;6.954;2023-01-28T09:47:40;5.00;99.90
60353;DHT22;46196;52.970;6.954;2023-01-28T09:50:32;4.50;99.90
60353;DHT22;46196;52.970;6.954;2023-01-28T09:53:04;2.90;99.90
60353;DHT22;46196;52.970;6.954;2023-01-28T09:55:37;2.90;99.90
60353;DHT22;46196;52.970;6.954;2023-01-28T09:58:06;6.00;99.90
60353;DHT22;46196;52.970;6.954;2023-01-28T10:00:56;3.40;99.90
60353;DHT22;46196;52.970;6.954;2023-01-28T10:06:09;3.00;99.90
60353;DHT22;46196;52.970;6.954;2023-01-28T10:11:48;2.70;99.90
60353;DHT22;46196;52.970;6.954;2023-01-28T10:14:29;2.50;99.90
60353;DHT22;46196;52.970;6.954;2023-01-28T10:17:06;3.80;99.90
60353;DHT22;46196;52.970;6.954;2023-01-28T10:19:42;4.30;99.90
60353;DHT22;46196;52.970;6.954;2023-01-28T10:22:17;4.50;99.90
60353;DHT22;46196;52.970;6.954;2023-01-28T10:24:51;5.90;99.90
60353;DHT22;46196;52.970;6.954;2023-01-28T10:27:23;5.00;99.90
60353;DHT22;46196;52.970;6.954;2023-01-28T10:29:50;3.80;99.90
60353;DHT22;46196;52.970;6.954;2023-01-28T10:32:32;2.50;99.90
60353;DHT22;46196;52.970;6.954;2023-01-28T10:35:01;4.10;99.90
60353;DHT22;46196;52.970;6.954;2023-01-28T10:37:31;3.10;99.90
60353;DHT22;46196;52.970;6.954;2023-01-28T10:39:58;4.20;99.90
60353;DHT22;46196;52.970;6.954;2023-01-28T10:42:33;2.80;99.90
60353;DHT22;46196;52.970;6.954;2023-01-28T10:45:20;3.50;99.90
60353;DHT22;46196;52.970;6.954;2023-01-28T10:50:21;3.50;99.90
60353;DHT22;46196;52.970;6.954;2023-01-28T10:52:58;4.70;99.90
60353;DHT22;46196;52.970;6.954;2023-01-28T10:55:54;5.60;99.90
60353;DHT22;46196;52.970;6.954;2023-01-28T10:58:28;4.20;99.90
60353;DHT22;46196;52.970;6.954;2023-01-28T11:01:05;4.80;99.90
60353;DHT22;46196;52.970;6.954;2023-01-28T11:06:00;4.90;99.90
60353;DHT22;46196;52.970;6.954;2023-01-28T11:08:28;6.60;99.90
60353;DHT22;46196;52.970;6.954;2023-01-28T11:10:55;5.00;99.90
60353;DHT22;46196;52.970;6.954;2023-01-28T11:13:28;5.20;99.90
60353;DHT22;46196;52.970;6.954;2023-01-28T11:16:15;5.00;99.90
60353;DHT22;46196;52.970;6.954;2023-01-28T11:18:51;5.10;99.90
60353;DHT22;46196;52.970;6.954;2023-01-28T11:21:23;4.30;99.90
60353;DHT22;46196;52.970;6.954;2023-01-28T11:23:53;8.50;99.90
60353;DHT22;46196;52.970;6.954;2023-01-28T11:26:37;4.90;99.90
60353;DHT22;46196;52.970;6.954;2023-01-28T11:29:05;6.80;99.90
60353;DHT22;46196;52.970;6.954;2023-01-28T11:31:38;7.60;99.90
60353;DHT22;46196;52.970;6.954;2023-01-28T11:34:06;6.90;99.90
60353;DHT22;46196;52.970;6.954;2023-01-28T11:36:33;9.40;99.90
60353;DHT22;46196;52.970;6.954;2023-01-28T11:39:15;9.10;99.90
60353;DHT22;46196;52.970;6.954;2023-01-28T11:44:24;6.60;99.90
60353;DHT22;46196;52.970;6.954;2023-01-28T11:47:25;7.20;99.90
60353;DHT22;46196;52.970;6.954;2023-01-28T11:50:23;6.50;99.90
60353;DHT22;46196;52.970;6.954;2023-01-28T11:53:13;6.10;99.90
60353;DHT22;46196;52.970;6.954;2023-01-28T12:05:03;6.90;99.90
60353;DHT22;46196;52.970;6.954;2023-01-28T12:10:25;5.30;99.90
60353;DHT22;46196;52.970;6.954;2023-01-28T12:21:05;5.40;99.90
60353;DHT22;46196;52.970;6.954;2023-01-28T12:26:52;4.30;99.90
60353;DHT22;46196;52.970;6.954;2023-01-28T12:39:52;5.00;99.90
60353;DHT22;46196;52.970;6.954;2023-01-28T12:42:37;4.90;99.90
60353;DHT22;46196;52.970;6.954;2023-01-28T12:47:38;4.10;99.90
60353;DHT22;46196;52.970;6.954;2023-01-28T12:50:21;5.10;99.90
60353;DHT22;46196;52.970;6.954;2023-01-28T12:58:20;4.70;99.90
60353;DHT22;46196;52.970;6.954;2023-01-28T13:00:53;5.10;99.90
60353;DHT22;46196;52.970;6.954;2023-01-28T13:03:52;7.00;99.90
60353;DHT22;46196;52.970;6.954;2023-01-28T13:06:41;4.70;99.90
60353;DHT22;46196;52.970;6.954;2023-01-28T13:09:21;5.90;99.90
60353;DHT22;46196;52.970;6.954;2023-01-28T13:11:50;6.00;99.90
60353;DHT22;46196;52.970;6.954;2023-01-28T13:14:20;6.00;99.90
60353;DHT22;46196;52.970;6.954;2023-01-28T13:16:47;7.90;99.90
60353;DHT22;46196;52.970;6.954;2023-01-28T13:21:45;6.20;99.90
60353;DHT22;46196;52.970;6.954;2023-01-28T13:26:55;8.30;99.90
60353;DHT22;46196;52.970;6.954;2023-01-28T13:31:55;6.40;99.90
60353;DHT22;46196;52.970;6.954;2023-01-28T13:34:37;6.00;99.90
60353;DHT22;46196;52.970;6.954;2023-01-28T13:40:01;6.60;99.90
60353;DHT22;46196;52.970;6.954;2023-01-28T13:42:29;6.80;99.90
60353;DHT22;46196;52.970;6.954;2023-01-28T13:45:07;5.80;99.90
60353;DHT22;46196;52.970;6.954;2023-01-28T13:47:35;5.80;99.90
60353;DHT22;46196;52.970;6.954;2023-01-28T13:50:04;6.70;99.90
60353;DHT22;46196;52.970;6.954;2023-01-28T13:52:58;6.30;99.90
60353;DHT22;46196;52.970;6.954;2023-01-28T13:55:31;6.50;99.90
60353;DHT22;46196;52.970;6.954;2023-01-28T14:01:21;6.20;99.90
60353;DHT22;46196;52.970;6.954;2023-01-28T14:20:39;6.80;99.90
60353;DHT22;46196;52.970;6.954;2023-01-28T14:23:15;6.70;99.90
60353;DHT22;46196;52.970;6.954;2023-01-28T14:30:59;6.50;99.90
60353;DHT22;46196;52.970;6.954;2023-01-28T14:35:53;8.00;99.90
60353;DHT22;46196;52.970;6.954;2023-01-28T14:38:20;6.20;99.90
60353;DHT22;46196;52.970;6.954;2023-01-28T14:40:50;6.20;99.90
60353;DHT22;46196;52.970;6.954;2023-01-28T14:43:24;6.20;99.90
60353;DHT22;46196;52.970;6.954;2023-01-28T14:46:56;6.50;99.90
60353;DHT22;46196;52.970;6.954;2023-01-28T15:02:01;5.00;99.90
60353;DHT22;46196;52.970;6.954;2023-01-28T15:09:20;6.40;99.90
60353;DHT22;46196;52.970;6.954;2023-01-28T15:11:47;5.20;99.90
60353;DHT22;46196;52.970;6.954;2023-01-28T15:14:32;4.90;99.90
60353;DHT22;46196;52.970;6.954;2023-01-28T15:16:58;5.60;99.90
60353;DHT22;46196;52.970;6.954;2023-01-28T15:19:31;4.80;99.90
60353;DHT22;46196;52.970;6.954;2023-01-28T15:22:06;5.20;99.90
60353;DHT22;46196;52.970;6.954;2023-01-28T15:24:35;5.40;99.90
60353;DHT22;46196;52.970;6.954;2023-01-28T15:27:01;5.10;99.90
60353;DHT22;46196;52.970;6.954;2023-01-28T15:29:35;5.40;99.90
60353;DHT22;46196;52.970;6.954;2023-01-28T15:32:03;5.40;99.90
60353;DHT22;46196;52.970;6.954;2023-01-28T15:34:30;5.40;99.90
60353;DHT22;46196;52.970;6.954;2023-01-28T15:37:00;5.30;99.90
60353;DHT22;46196;52.970;6.954;2023-01-28T15:39:27;5.30;99.90
60353;DHT22;46196;52.970;6.954;2023-01-28T15:42:03;5.30;99.90
60353;DHT22;46196;52.970;6.954;2023-01-28T15:44:41;5.30;99.90
60353;DHT22;46196;52.970;6.954;2023-01-28T15:47:30;4.70;99.90
60353;DHT22;46196;52.970;6.954;2023-01-28T15:50:02;5.30;99.90
60353;DHT22;46196;52.970;6.954;2023-01-28T15:52:35;4.10;99.90
60353;DHT22;46196;52.970;6.954;2023-01-28T15:55:03;5.10;99.90
60353;DHT22;46196;52.970;6.954;2023-01-28T15:57:33;4.00;99.90
60353;DHT22;46196;52.970;6.954;2023-01-28T16:02:32;3.60;99.90
60353;DHT22;46196;52.970;6.954;2023-01-28T16:04:58;5.90;99.90
60353;DHT22;46196;52.970;6.954;2023-01-28T16:07:26;4.90;99.90
60353;DHT22;46196;52.970;6.954;2023-01-28T16:09:54;5.90;99.90
60353;DHT22;46196;52.970;6.954;2023-01-28T16:12:21;4.80;99.90
60353;DHT22;46196;52.970;6.954;2023-01-28T16:14:55;3.80;99.90
60353;DHT22;46196;52.970;6.954;2023-01-28T16:17:23;4.80;99.90
60353;DHT22;46196;52.970;6.954;2023-01-28T16:20:01;4.10;99.90
60353;DHT22;46196;52.970;6.954;2023-01-28T16:22:36;3.90;99.90
60353;DHT22;46196;52.970;6.954;2023-01-28T16:25:29;4.60;99.90
60353;DHT22;46196;52.970;6.954;2023-01-28T16:27:57;7.10;99.90
60353;DHT22;46196;52.970;6.954;2023-01-28T16:35:18;4.60;99.90
60353;DHT22;46196;52.970;6.954;2023-01-28T16:37:45;4.00;99.90
60353;DHT22;46196;52.970;6.954;2023-01-28T16:40:12;4.50;99.90
60353;DHT22;46196;52.970;6.954;2023-01-28T16:45:05;3.70;99.90
60353;DHT22;46196;52.970;6.954;2023-01-28T16:49:58;4.50;99.90
60353;DHT22;46196;52.970;6.954;2023-01-28T16:52:23;3.50;99.90
60353;DHT22;46196;52.970;6.954;2023-01-28T16:57:18;4.50;99.90
60353;DHT22;46196;52.970;6.954;2023-01-28T16:59:44;3.60;99.90
60353;DHT22;46196;52.970;6.954;2023-01-28T17:02:11;4.50;99.90
60353;DHT22;46196;52.970;6.954;2023-01-28T17:07:03;3.60;99.90
60353;DHT22;46196;52.970;6.954;2023-01-28T17:09:29;3.80;99.90
60353;DHT22;46196;52.970;6.954;2023-01-28T17:11:55;5.30;99.90
60353;DHT22;46196;52.970;6.954;2023-01-28T17:14:21;4.60;99.90
60353;DHT22;46196;52.970;6.954;2023-01-28T17:16:47;4.10;99.90
60353;DHT22;46196;52.970;6.954;2023-01-28T17:21:39;5.30;99.90
60353;DHT22;46196;52.970;6.954;2023-01-28T17:24:05;4.20;99.90
60353;DHT22;46196;52.970;6.954;2023-01-28T17:28:59;4.10;99.90
60353;DHT22;46196;52.970;6.954;2023-01-28T17:31:25;7.00;99.90
60353;DHT22;46196;52.970;6.954;2023-01-28T17:33:53;4.20;99.90
60353;DHT22;46196;52.970;6.954;2023-01-28T17:38:45;6.00;99.90
60353;DHT22;46196;52.970;6.954;2023-01-28T17:41:12;5.30;99.90
60353;DHT22;46196;52.970;6.954;2023-01-28T17:46:14;4.10;99.90
60353;DHT22;46196;52.970;6.954;2023-01-28T17:48:41;4.60;99.90
60353;DHT22;46196;52.970;6.954;2023-01-28T17:51:08;5.30;99.90
60353;DHT22;46196;52.970;6.954;2023-01-28T18:03:19;6.50;99.90
60353;DHT22;46196;52.970;6.954;2023-01-28T18:05:56;4.10;99.90
60353;DHT22;46196;52.970;6.954;2023-01-28T18:10:49;3.70;99.90
60353;DHT22;46196;52.970;6.954;2023-01-28T18:13:15;3.50;99.90
60353;DHT22;46196;52.970;6.954;2023-01-28T18:15:40;2.70;99.90
60353;DHT22;46196;52.970;6.954;2023-01-28T18:20:32;3.80;99.90
60353;DHT22;46196;52.970;6.954;2023-01-28T18:25:25;2.90;99.90
60353;DHT22;46196;52.970;6.954;2023-01-28T18:27:51;3.90;99.90
60353;DHT22;46196;52.970;6.954;2023-01-28T18:35:10;2.80;99.90
60353;DHT22;46196;52.970;6.954;2023-01-28T18:37:36;3.90;99.90
60353;DHT22;46196;52.970;6.954;2023-01-28T18:40:03;4.10;99.90
60353;DHT22;46196;52.970;6.954;2023-01-28T18:42:30;5.50;99.90
60353;DHT22;46196;52.970;6.954;2023-01-28T18:44:58;4.10;99.90
60353;DHT22;46196;52.970;6.954;2023-01-28T18:49:50;4.30;99.90
60353;DHT22;46196;52.970;6.954;2023-01-28T19:04:26;3.90;99.90
60353;DHT22;46196;52.970;6.954;2023-01-28T19:06:55;4.00;99.90
60353;DHT22;46196;52.970;6.954;2023-01-28T19:09:21;6.90;99.90
60353;DHT22;46196;52.970;6.954;2023-01-28T19:11:48;3.90;99.90
60353;DHT22;46196;52.970;6.954;2023-01-28T19:14:16;3.30;99.90
60353;DHT22;46196;52.970;6.954;2023-01-28T19:16:42;6.20;99.90
60353;DHT22;46196;52.970;6.954;2023-01-28T19:19:08;3.80;99.90
60353;DHT22;46196;52.970;6.954;2023-01-28T19:21:34;2.70;99.90
60353;DHT22;46196;52.970;6.954;2023-01-28T19:24:05;6.10;99.90
60353;DHT22;46196;52.970;6.954;2023-01-28T19:26:34;3.80;99.90
60353;DHT22;46196;52.970;6.954;2023-01-28T19:31:27;3.80;99.90
60353;DHT22;46196;52.970;6.954;2023-01-28T19:33:58;3.80;99.90
60353;DHT22;46196;52.970;6.954;2023-01-28T19:36:26;3.40;99.90
60353;DHT22;46196;52.970;6.954;2023-01-28T19:38:56;3.70;99.90
60353;DHT22;46196;52.970;6.954;2023-01-28T19:41:22;2.60;99.90
60353;DHT22;46196;52.970;6.954;2023-01-28T19:43:48;3.50;99.90
60353;DHT22;46196;52.970;6.954;2023-01-28T19:46:15;4.70;99.90
60353;DHT22;46196;52.970;6.954;2023-01-28T19:48:43;3.70;99.90
60353;DHT22;46196;52.970;6.954;2023-01-28T19:51:10;3.20;99.90
60353;DHT22;46196;52.970;6.954;2023-01-28T19:53:38;3.80;99.90
60353;DHT22;46196;52.970;6.954;2023-01-28T19:56:08;3.70;99.90
60353;DHT22;46196;52.970;6.954;2023-01-28T19:58:35;2.20;99.90
60353;DHT22;46196;52.970;6.954;2023-01-28T20:03:35;3.20;99.90
60353;DHT22;46196;52.970;6.954;2023-01-28T20:06:03;3.60;99.90
60353;DHT22;46196;52.970;6.954;2023-01-28T20:08:30;5.80;99.90
60353;DHT22;46196;52.970;6.954;2023-01-28T20:11:07;2.90;99.90
60353;DHT22;46196;52.970;6.954;2023-01-28T20:13:34;6.00;99.90
60353;DHT22;46196;52.970;6.954;2023-01-28T20:16:05;2.50;99.90
60353;DHT22;46196;52.970;6.954;2023-01-28T20:18:31;3.70;99.90
60353;DHT22;46196;52.970;6.954;2023-01-28T20:20:58;3.20;99.90
60353;DHT22;46196;52.970;6.954;2023-01-28T20:23:23;3.00;99.90
60353;DHT22;46196;52.970;6.954;2023-01-28T20:25:54;3.70;99.90
60353;DHT22;46196;52.970;6.954;2023-01-28T20:28:21;3.70;99.90
60353;DHT22;46196;52.970;6.954;2023-01-28T20:33:14;3.30;99.90
60353;DHT22;46196;52.970;6.954;2023-01-28T20:35:39;4.10;99.90
60353;DHT22;46196;52.970;6.954;2023-01-28T20:38:05;3.40;99.90
60353;DHT22;46196;52.970;6.954;2023-01-28T20:40:31;4.40;99.90
60353;DHT22;46196;52.970;6.954;2023-01-28T20:42:57;5.90;99.90
60353;DHT22;46196;52.970;6.954;2023-01-28T20:47:49;3.80;99.90
60353;DHT22;46196;52.970;6.954;2023-01-28T20:50:15;2.90;99.90
60353;DHT22;46196;52.970;6.954;2023-01-28T20:52:41;3.40;99.90
60353;DHT22;46196;52.970;6.954;2023-01-28T20:55:07;3.60;99.90
60353;DHT22;46196;52.970;6.954;2023-01-28T20:57:34;5.80;99.90
60353;DHT22;46196;52.970;6.954;2023-01-28T21:00:04;2.40;99.90
60353;DHT22;46196;52.970;6.954;2023-01-28T21:02:31;5.30;99.90
60353;DHT22;46196;52.970;6.954;2023-01-28T21:05:00;3.20;99.90
60353;DHT22;46196;52.970;6.954;2023-01-28T21:07:26;4.40;99.90
60353;DHT22;46196;52.970;6.954;2023-01-28T21:12:18;3.60;99.90
60353;DHT22;46196;52.970;6.954;2023-01-28T21:14:44;3.10;99.90
60353;DHT22;46196;52.970;6.954;2023-01-28T21:29:20;2.10;99.90
60353;DHT22;46196;52.970;6.954;2023-01-28T21:31:46;2.60;99.90
60353;DHT22;46196;52.970;6.954;2023-01-28T21:39:05;4.20;99.90
60353;DHT22;46196;52.970;6.954;2023-01-28T21:43:57;2.90;99.90
60353;DHT22;46196;52.970;6.954;2023-01-28T21:46:26;2.70;99.90
60353;DHT22;46196;52.970;6.954;2023-01-28T21:48:57;3.40;99.90
60353;DHT22;46196;52.970;6.954;2023-01-28T21:54:15;3.10;99.90
60353;DHT22;46196;52.970;6.954;2023-01-28T21:56:45;3.60;99.90
60353;DHT22;46196;52.970;6.954;2023-01-28T21:59:15;2.90;99.90
60353;DHT22;46196;52.970;6.954;2023-01-28T22:04:19;2.40;99.90
60353;DHT22;46196;52.970;6.954;2023-01-28T22:06:45;3.80;99.90
60353;DHT22;46196;52.970;6.954;2023-01-28T22:09:12;3.60;99.90
60353;DHT22;46196;52.970;6.954;2023-01-28T22:11:42;3.90;99.90
60353;DHT22;46196;52.970;6.954;2023-01-28T22:14:08;1.60;99.90
60353;DHT22;46196;52.970;6.954;2023-01-28T22:19:01;3.00;99.90
60353;DHT22;46196;52.970;6.954;2023-01-28T22:23:53;2.50;99.90
60353;DHT22;46196;52.970;6.954;2023-01-28T22:26:19;3.10;99.90